createdAt,value
2018-11-22T00:00:10.334Z,1.70
2018-11-22T00:02:38.491Z,1.70
2018-11-22T00:05:06.910Z,1.70
2018-11-22T00:07:35.136Z,1.60
2018-11-22T00:10:03.330Z,1.60
2018-11-22T00:12:31.485Z,1.60
2018-11-22T00:14:59.651Z,1.60
2018-11-22T00:17:27.850Z,1.60
2018-11-22T00:19:56.265Z,1.60
2018-11-22T00:22:24.662Z,1.60
2018-11-22T00:24:52.899Z,1.60
2018-11-22T00:27:21.053Z,1.60
2018-11-22T00:29:49.474Z,1.60
2018-11-22T00:32:18.061Z,1.70
2018-11-22T00:34:46.310Z,1.70
2018-11-22T00:37:14.567Z,1.60
2018-11-22T00:39:42.725Z,1.60
2018-11-22T00:42:10.934Z,1.60
2018-11-22T00:44:39.191Z,1.60
2018-11-22T00:47:07.466Z,1.60
2018-11-22T00:49:35.626Z,1.60
2018-11-22T00:52:03.800Z,1.60
2018-11-22T00:54:31.949Z,1.60
2018-11-22T00:57:00.118Z,1.60
2018-11-22T00:59:28.275Z,1.70
2018-11-22T01:01:56.753Z,1.70
2018-11-22T01:04:25.237Z,1.70
2018-11-22T01:06:53.490Z,1.70
2018-11-22T01:09:21.676Z,1.60
2018-11-22T01:11:49.946Z,1.70
2018-11-22T01:14:18.927Z,1.70
2018-11-22T01:16:47.110Z,1.70
2018-11-22T01:19:15.269Z,1.70
2018-11-22T01:21:43.446Z,1.70
2018-11-22T01:24:11.863Z,1.70
2018-11-22T01:26:40.048Z,1.70
2018-11-22T01:29:08.303Z,1.70
2018-11-22T01:31:36.568Z,1.70
2018-11-22T01:34:04.724Z,1.70
2018-11-22T01:36:32.903Z,1.70
2018-11-22T01:39:01.077Z,1.70
2018-11-22T01:41:29.276Z,1.70
2018-11-22T01:43:57.472Z,1.70
2018-11-22T01:46:25.630Z,1.70
2018-11-22T01:48:53.894Z,1.70
2018-11-22T01:51:22.101Z,1.80
2018-11-22T01:53:50.250Z,1.70
2018-11-22T01:56:18.527Z,1.70
2018-11-22T01:58:46.692Z,1.70
2018-11-22T02:01:14.872Z,1.70
2018-11-22T02:03:43.136Z,1.70
2018-11-22T02:06:11.298Z,1.70
2018-11-22T02:08:39.449Z,1.70
2018-11-22T02:11:07.608Z,1.70
2018-11-22T02:13:35.819Z,1.70
2018-11-22T02:16:03.985Z,1.80
2018-11-22T02:18:32.134Z,1.80
2018-11-22T02:21:00.523Z,1.70
2018-11-22T02:23:28.731Z,1.70
2018-11-22T02:25:56.929Z,1.80
2018-11-22T02:28:25.077Z,1.80
2018-11-22T02:30:53.244Z,1.70
2018-11-22T02:33:21.410Z,1.80
2018-11-22T02:35:49.606Z,1.80
2018-11-22T02:38:17.781Z,1.80
2018-11-22T02:40:45.932Z,1.80
2018-11-22T02:43:14.101Z,1.80
2018-11-22T02:45:42.251Z,1.80
2018-11-22T02:48:10.419Z,1.80
2018-11-22T02:50:38.645Z,1.80
2018-11-22T02:53:06.838Z,1.80
2018-11-22T02:55:34.987Z,1.80
2018-11-22T02:58:03.478Z,1.80
2018-11-22T03:00:36.300Z,1.80
2018-11-22T03:03:04.504Z,1.80
2018-11-22T03:05:32.770Z,1.80
2018-11-22T03:08:00.926Z,1.80
2018-11-22T03:10:29.164Z,1.80
2018-11-22T03:12:57.392Z,1.80
2018-11-22T03:15:25.641Z,1.80
2018-11-22T03:17:53.911Z,1.90
2018-11-22T03:20:22.068Z,1.90
2018-11-22T03:22:50.275Z,1.90
2018-11-22T03:25:19.215Z,1.90
2018-11-22T03:27:47.931Z,1.90
2018-11-22T03:30:19.878Z,1.90
2018-11-22T03:32:48.027Z,1.90
2018-11-22T03:35:17.516Z,1.90
2018-11-22T03:37:45.768Z,1.90
2018-11-22T03:40:15.498Z,1.90
2018-11-22T03:42:44.852Z,1.90
2018-11-22T03:45:14.012Z,1.90
2018-11-22T03:47:42.605Z,1.90
2018-11-22T03:50:11.721Z,1.90
2018-11-22T03:52:40.267Z,1.90
2018-11-22T03:55:09.424Z,1.90
2018-11-22T03:57:37.758Z,1.90
2018-11-22T04:00:06.887Z,1.90
2018-11-22T04:02:35.062Z,2.00
2018-11-22T04:05:03.236Z,1.90
2018-11-22T04:07:31.439Z,1.90
2018-11-22T04:09:59.898Z,1.90
2018-11-22T04:12:28.063Z,1.90
2018-11-22T04:14:56.240Z,1.90
2018-11-22T04:17:24.406Z,1.90
2018-11-22T04:19:52.598Z,1.90
2018-11-22T04:22:20.761Z,1.90
2018-11-22T04:24:48.930Z,1.90
2018-11-22T04:27:17.144Z,1.90
2018-11-22T04:29:45.295Z,1.90
2018-11-22T04:32:13.623Z,1.90
2018-11-22T04:34:41.841Z,1.90
2018-11-22T04:37:10.036Z,1.90
2018-11-22T04:39:38.200Z,1.90
2018-11-22T04:42:06.398Z,1.90
2018-11-22T04:44:34.686Z,1.90
2018-11-22T04:47:02.963Z,1.90
2018-11-22T04:49:31.104Z,1.90
2018-11-22T04:51:59.309Z,1.90
2018-11-22T04:54:27.463Z,1.90
2018-11-22T04:56:55.616Z,1.90
2018-11-22T04:59:24.322Z,1.90
2018-11-22T05:01:52.458Z,1.90
2018-11-22T05:04:20.622Z,2.00
2018-11-22T05:06:48.774Z,1.90
2018-11-22T05:09:17.168Z,1.90
2018-11-22T05:11:45.318Z,1.90
2018-11-22T05:14:13.535Z,1.90
2018-11-22T05:16:41.760Z,1.90
2018-11-22T05:19:09.923Z,1.90
2018-11-22T05:21:38.075Z,1.90
2018-11-22T05:24:06.308Z,1.90
2018-11-22T05:26:34.454Z,1.90
2018-11-22T05:29:02.967Z,2.00
2018-11-22T05:31:31.229Z,1.90
2018-11-22T05:33:59.593Z,1.90
2018-11-22T05:36:27.864Z,1.90
2018-11-22T05:38:56.147Z,1.90
2018-11-22T05:41:24.320Z,1.90
2018-11-22T05:43:52.595Z,1.90
2018-11-22T05:46:20.946Z,1.90
2018-11-22T05:48:49.249Z,1.90
2018-11-22T05:51:17.393Z,2.00
2018-11-22T05:53:45.546Z,1.90
2018-11-22T05:56:13.695Z,1.90
2018-11-22T05:58:42.000Z,1.90
2018-11-22T06:14:36.639Z,1.90
2018-11-22T06:18:06.368Z,1.90
2018-11-22T06:22:03.972Z,1.90
2018-11-22T06:23:39.226Z,1.90
2018-11-22T06:26:30.966Z,1.90
2018-11-22T06:35:43.801Z,1.90
2018-11-22T06:38:41.623Z,1.90
2018-11-22T06:41:37.606Z,1.90
2018-11-22T07:03:33.802Z,1.90
2018-11-22T07:16:17.300Z,1.90
2018-11-22T07:19:07.489Z,1.90
2018-11-22T07:31:04.497Z,1.90
2018-11-22T07:39:24.314Z,2.00
2018-11-22T07:48:47.573Z,1.90
2018-11-22T07:51:46.139Z,1.90
2018-11-22T07:54:34.123Z,1.90
2018-11-22T07:57:02.621Z,2.00
2018-11-22T07:59:42.732Z,2.00
2018-11-22T08:02:30.076Z,2.00
2018-11-22T08:08:07.553Z,2.00
2018-11-22T08:14:07.214Z,2.00
2018-11-22T08:16:39.099Z,2.00
2018-11-22T08:19:10.668Z,2.00
2018-11-22T08:21:38.886Z,2.00
2018-11-22T08:24:07.256Z,2.00
2018-11-22T08:26:58.416Z,2.10
2018-11-22T08:29:26.949Z,2.10
2018-11-22T08:58:18.181Z,2.30
2018-11-22T09:11:36.186Z,2.40
2018-11-22T09:34:29.579Z,2.60
2018-11-22T09:41:04.694Z,2.70
2018-11-22T09:56:06.586Z,2.70
2018-11-22T10:11:02.075Z,2.70
2018-11-22T10:25:12.244Z,2.80
2018-11-22T10:27:58.705Z,2.90
2018-11-22T10:31:01.857Z,3.00
2018-11-22T10:33:52.278Z,3.00
2018-11-22T10:36:20.928Z,3.00
2018-11-22T10:39:06.444Z,3.00
2018-11-22T11:35:36.586Z,3.20
2018-11-22T11:38:04.806Z,3.10
2018-11-22T11:40:36.897Z,3.10
2018-11-22T11:44:00.192Z,3.10
2018-11-22T11:46:28.755Z,3.10
2018-11-22T11:49:01.248Z,3.10
2018-11-22T11:54:21.602Z,3.00
2018-11-22T11:56:49.985Z,3.00
2018-11-22T11:59:44.465Z,3.20
2018-11-22T12:05:47.479Z,3.10
2018-11-22T12:08:39.832Z,3.10
2018-11-22T12:11:08.087Z,3.10
2018-11-22T12:13:36.414Z,3.10
2018-11-22T12:16:19.994Z,3.10
2018-11-22T12:19:23.569Z,3.10
2018-11-22T12:25:38.149Z,3.00
2018-11-22T12:28:06.534Z,3.00
2018-11-22T12:30:38.461Z,3.00
2018-11-22T12:36:55.673Z,2.90
2018-11-22T12:49:06.001Z,2.90
2018-11-22T12:51:56.074Z,2.90
2018-11-22T12:55:04.610Z,2.90
2018-11-22T12:57:51.776Z,2.90
2018-11-22T13:00:26.601Z,2.90
2018-11-22T13:03:15.594Z,2.80
2018-11-22T13:05:51.833Z,2.80
2018-11-22T13:08:33.550Z,2.80
2018-11-22T13:11:34.684Z,2.70
2018-11-22T13:14:03.245Z,2.80
2018-11-22T13:20:17.854Z,2.80
2018-11-22T13:22:48.452Z,2.70
2018-11-22T13:25:30.540Z,2.70
2018-11-22T13:27:48.292Z,2.70
2018-11-22T13:30:24.578Z,2.70
2018-11-22T13:33:18.880Z,2.70
2018-11-22T13:35:52.125Z,2.80
2018-11-22T13:44:37.112Z,2.80
2018-11-22T13:50:42.135Z,2.70
2018-11-22T13:59:26.893Z,2.60
2018-11-22T14:02:16.923Z,2.60
2018-11-22T14:05:11.537Z,2.60
2018-11-22T14:07:36.884Z,2.60
2018-11-22T14:13:07.223Z,2.50
2018-11-22T14:28:13.213Z,2.40
2018-11-22T14:33:47.979Z,2.30
2018-11-22T14:36:19.299Z,2.30
2018-11-22T14:38:48.151Z,2.20
2018-11-22T14:41:28.682Z,2.20
2018-11-22T14:44:49.415Z,2.10
2018-11-22T14:50:25.557Z,2.20
2018-11-22T15:00:00.034Z,2.20
2018-11-22T15:06:01.422Z,2.20
2018-11-22T15:08:29.589Z,2.20
2018-11-22T15:10:57.729Z,2.20
2018-11-22T15:13:30.587Z,2.20
2018-11-22T15:16:05.023Z,2.10
2018-11-22T15:21:51.615Z,2.20
2018-11-22T15:24:20.414Z,2.20
2018-11-22T15:27:12.066Z,2.20
2018-11-22T15:30:08.972Z,2.20
2018-11-22T15:32:29.968Z,2.20
2018-11-22T15:38:11.663Z,2.30
2018-11-22T15:47:14.095Z,2.30
2018-11-22T15:53:05.250Z,2.30
2018-11-22T15:55:33.794Z,2.30
2018-11-22T15:58:02.593Z,2.20
2018-11-22T16:04:38.360Z,2.20
2018-11-22T16:04:42.001Z,2.20
2018-11-22T16:07:16.374Z,2.20
2018-11-22T16:10:06.717Z,2.20
2018-11-22T16:16:19.302Z,2.20
2018-11-22T16:18:48.130Z,2.20
2018-11-22T16:21:16.394Z,2.20
2018-11-22T16:23:44.878Z,2.20
2018-11-22T16:40:27.494Z,2.10
2018-11-22T16:53:16.847Z,2.10
2018-11-22T16:55:44.996Z,2.20
2018-11-22T16:58:13.146Z,2.20
2018-11-22T17:00:41.336Z,2.10
2018-11-22T17:03:10.658Z,2.10
2018-11-22T17:05:39.038Z,2.10
2018-11-22T17:08:07.691Z,2.10
2018-11-22T17:10:36.154Z,2.10
2018-11-22T17:13:04.922Z,2.10
2018-11-22T17:15:34.481Z,2.10
2018-11-22T17:18:03.333Z,2.10
2018-11-22T17:20:32.318Z,2.10
2018-11-22T17:23:00.722Z,2.00
2018-11-22T17:25:30.173Z,2.10
2018-11-22T17:27:59.577Z,2.10
2018-11-22T17:30:45.986Z,2.10
2018-11-22T17:33:14.193Z,2.10
2018-11-22T17:35:42.864Z,2.00
2018-11-22T17:38:11.669Z,2.00
2018-11-22T17:40:41.485Z,2.00
2018-11-22T17:43:09.682Z,2.00
2018-11-22T17:45:39.180Z,2.00
2018-11-22T17:48:07.521Z,1.90
2018-11-22T17:50:36.742Z,1.90
2018-11-22T17:53:05.298Z,1.80
2018-11-22T17:55:33.950Z,1.80
2018-11-22T17:58:02.105Z,1.90
2018-11-22T18:00:37.189Z,1.80
2018-11-22T18:03:05.941Z,1.80
2018-11-22T18:05:35.088Z,1.70
2018-11-22T18:08:03.254Z,1.70
2018-11-22T18:10:32.804Z,1.70
2018-11-22T18:13:01.141Z,1.70
2018-11-22T18:15:30.692Z,1.70
2018-11-22T18:17:59.109Z,1.70
2018-11-22T18:20:28.708Z,1.70
2018-11-22T18:22:57.901Z,1.70
2018-11-22T18:25:30.225Z,1.60
2018-11-22T18:27:58.552Z,1.60
2018-11-22T18:30:28.350Z,1.70
2018-11-22T18:32:57.856Z,1.70
2018-11-22T18:35:26.042Z,1.60
2018-11-22T18:37:54.274Z,1.60
2018-11-22T18:40:23.707Z,1.60
2018-11-22T18:42:52.906Z,1.70
2018-11-22T18:45:38.584Z,1.70
2018-11-22T18:48:07.296Z,1.70
2018-11-22T18:50:36.377Z,1.60
2018-11-22T18:53:04.553Z,1.60
2018-11-22T18:55:32.740Z,1.70
2018-11-22T18:58:00.913Z,1.70
2018-11-22T19:00:30.301Z,1.70
2018-11-22T19:02:59.563Z,1.70
2018-11-22T19:05:27.795Z,1.70
2018-11-22T19:07:56.696Z,1.70
2018-11-22T19:10:35.133Z,1.70
2018-11-22T19:13:04.702Z,1.70
2018-11-22T19:15:34.198Z,1.70
2018-11-22T19:18:02.375Z,1.60
2018-11-22T19:20:32.398Z,1.60
2018-11-22T19:23:01.388Z,1.60
2018-11-22T19:25:29.640Z,1.70
2018-11-22T19:27:58.607Z,1.60
2018-11-22T19:30:27.924Z,1.60
2018-11-22T19:32:57.304Z,1.60
2018-11-22T19:35:27.124Z,1.70
2018-11-22T19:37:55.301Z,1.60
2018-11-22T19:40:24.607Z,1.60
2018-11-22T19:42:54.205Z,1.60
2018-11-22T19:45:23.682Z,1.70
2018-11-22T19:47:51.942Z,1.70
2018-11-22T19:50:21.646Z,1.60
2018-11-22T19:52:50.447Z,1.60
2018-11-22T19:55:19.957Z,1.60
2018-11-22T19:57:49.588Z,1.50
2018-11-22T20:00:18.812Z,1.50
2018-11-22T20:02:47.318Z,1.50
2018-11-22T20:05:16.487Z,1.50
2018-11-22T20:07:45.897Z,1.50
2018-11-22T20:10:33.269Z,1.60
2018-11-22T20:13:01.455Z,1.60
2018-11-22T20:15:29.789Z,1.60
2018-11-22T20:17:58.545Z,1.60
2018-11-22T20:20:27.120Z,1.60
2018-11-22T20:22:55.489Z,1.60
2018-11-22T20:25:23.729Z,1.60
2018-11-22T20:27:52.962Z,1.60
2018-11-22T20:30:28.475Z,1.60
2018-11-22T20:32:57.311Z,1.60
2018-11-22T20:35:25.474Z,1.70
2018-11-22T20:37:53.919Z,1.70
2018-11-22T20:40:23.243Z,1.70
2018-11-22T20:42:51.448Z,1.60
2018-11-22T20:45:20.824Z,1.60
2018-11-22T20:47:50.412Z,1.60
2018-11-22T20:50:19.809Z,1.70
2018-11-22T20:52:48.479Z,1.60
2018-11-22T20:55:18.542Z,1.60
2018-11-22T20:57:47.940Z,1.60
2018-11-22T21:00:17.494Z,1.60
2018-11-22T21:02:45.917Z,1.60
2018-11-22T21:05:14.649Z,1.70
2018-11-22T21:07:43.338Z,1.70
2018-11-22T21:10:13.176Z,1.60
2018-11-22T21:12:41.782Z,1.60
2018-11-22T21:15:10.789Z,1.60
2018-11-22T21:17:39.604Z,1.60
2018-11-22T21:20:08.347Z,1.60
2018-11-22T21:22:36.857Z,1.50
2018-11-22T21:25:05.727Z,1.50
2018-11-22T21:27:34.109Z,1.50
2018-11-22T21:30:02.496Z,1.50
2018-11-22T21:32:30.690Z,1.50
2018-11-22T21:34:59.149Z,1.50
2018-11-22T21:37:27.772Z,1.50
2018-11-22T21:39:55.945Z,1.50
2018-11-22T21:42:24.104Z,1.50
2018-11-22T21:44:52.322Z,1.50
2018-11-22T21:47:20.517Z,1.50
2018-11-22T21:49:48.664Z,1.50
2018-11-22T21:52:16.866Z,1.60
2018-11-22T21:54:45.117Z,1.60
2018-11-22T21:57:13.549Z,1.60
2018-11-22T21:59:41.794Z,1.60
2018-11-22T22:02:10.054Z,1.60
2018-11-22T22:04:38.250Z,1.60
2018-11-22T22:07:06.604Z,1.70
2018-11-22T22:09:34.825Z,1.70
2018-11-22T22:12:03.047Z,1.70
2018-11-22T22:14:31.363Z,1.60
2018-11-22T22:16:59.824Z,1.60
2018-11-22T22:19:28.114Z,1.60
2018-11-22T22:21:56.277Z,1.60
2018-11-22T22:24:24.463Z,1.60
2018-11-22T22:26:52.753Z,1.70
2018-11-22T22:29:21.487Z,1.70
2018-11-22T22:31:49.632Z,1.70
2018-11-22T22:34:17.975Z,1.70
2018-11-22T22:36:46.132Z,1.80
2018-11-22T22:39:14.303Z,1.80
2018-11-22T22:41:42.462Z,1.80
2018-11-22T22:44:10.693Z,1.80
2018-11-22T22:46:39.874Z,1.80
2018-11-22T22:49:08.206Z,1.80
2018-11-22T22:51:36.645Z,1.80
2018-11-22T22:54:04.956Z,1.80
2018-11-22T22:56:33.103Z,1.80
2018-11-22T22:59:01.520Z,1.80
2018-11-22T23:01:29.739Z,1.80
2018-11-22T23:03:57.915Z,1.80
2018-11-22T23:06:26.071Z,1.90
2018-11-22T23:08:54.458Z,1.90
2018-11-22T23:11:22.632Z,1.90
2018-11-22T23:13:51.124Z,1.90
2018-11-22T23:16:19.331Z,1.90
2018-11-22T23:18:47.612Z,1.90
2018-11-22T23:21:15.858Z,1.90
2018-11-22T23:23:44.138Z,1.90
2018-11-22T23:26:12.399Z,2.00
2018-11-22T23:28:40.638Z,2.00
2018-11-22T23:31:08.843Z,2.00
2018-11-22T23:33:37.253Z,2.00
2018-11-22T23:36:05.534Z,2.00
2018-11-22T23:38:33.832Z,1.90
2018-11-22T23:41:02.113Z,1.90
2018-11-22T23:43:30.518Z,1.90
2018-11-22T23:45:58.709Z,2.00
2018-11-22T23:48:26.898Z,1.90
2018-11-22T23:50:55.075Z,1.90
2018-11-22T23:53:23.505Z,1.90
2018-11-22T23:55:51.718Z,1.90
2018-11-22T23:58:19.886Z,1.90
